createdAt,value
2023-03-05T00:04:17.762Z,2.20
2023-03-05T00:09:19.737Z,2.30
2023-03-05T00:14:22.873Z,2.03
2023-03-05T00:19:24.906Z,2.50
2023-03-05T00:24:27.034Z,2.28
2023-03-05T00:29:31.678Z,2.50
2023-03-05T00:34:33.953Z,2.70
2023-03-05T00:39:36.050Z,2.88
2023-03-05T00:44:39.729Z,2.70
2023-03-05T00:49:41.848Z,2.83
2023-03-05T00:54:44.035Z,2.80
2023-03-05T00:59:46.022Z,2.47
2023-03-05T01:04:48.106Z,3.15
2023-03-05T01:09:50.662Z,2.97
2023-03-05T01:14:52.826Z,2.47
2023-03-05T01:19:55.208Z,3.53
2023-03-05T01:24:57.451Z,2.95
2023-03-05T01:29:59.594Z,3.00
2023-03-05T01:35:04.085Z,2.80
2023-03-05T01:40:06.897Z,3.03
2023-03-05T01:45:13.524Z,3.10
2023-03-05T01:50:22.752Z,3.00
2023-03-05T01:55:27.468Z,3.35
2023-03-05T02:00:31.852Z,2.75
2023-03-05T02:05:36.941Z,3.25
2023-03-05T02:10:47.966Z,2.70
2023-03-05T02:15:52.415Z,3.47
2023-03-05T02:20:57.160Z,3.05
2023-03-05T02:25:59.806Z,3.13
2023-03-05T02:31:01.954Z,3.15
2023-03-05T02:36:04.428Z,3.80
2023-03-05T02:41:06.658Z,3.63
2023-03-05T02:46:10.008Z,3.33
2023-03-05T02:51:12.400Z,3.85
2023-03-05T02:56:14.509Z,3.90
2023-03-05T03:01:16.726Z,5.22
2023-03-05T03:06:18.863Z,5.93
2023-03-05T03:11:21.377Z,6.18
2023-03-05T03:16:23.455Z,5.80
2023-03-05T03:21:26.848Z,6.07
2023-03-05T03:26:28.918Z,5.90
2023-03-05T03:31:31.044Z,5.68
2023-03-05T03:36:34.855Z,5.57
2023-03-05T03:41:41.121Z,6.18
2023-03-05T03:46:48.294Z,5.10
2023-03-05T03:51:52.147Z,5.68
2023-03-05T03:56:54.497Z,6.13
2023-03-05T04:01:56.756Z,5.80
2023-03-05T04:06:58.932Z,5.93
2023-03-05T04:12:01.257Z,6.30
2023-03-05T04:17:03.411Z,6.53
2023-03-05T04:22:06.944Z,6.25
2023-03-05T04:27:09.852Z,6.55
2023-03-05T04:32:11.992Z,6.60
2023-03-05T04:37:14.125Z,5.50
2023-03-05T04:42:16.266Z,6.18
2023-03-05T04:47:19.144Z,5.75
2023-03-05T04:52:21.400Z,5.65
2023-03-05T04:57:24.144Z,6.07
2023-03-05T05:02:26.539Z,6.40
2023-03-05T05:07:29.854Z,5.90
2023-03-05T05:12:31.878Z,5.80
2023-03-05T05:17:34.277Z,4.57
2023-03-05T05:22:36.968Z,5.38
2023-03-05T05:27:39.910Z,5.65
2023-03-05T05:32:41.979Z,5.15
2023-03-05T05:37:44.246Z,4.90
2023-03-05T05:42:46.426Z,4.55
2023-03-05T05:47:48.460Z,4.57
2023-03-05T05:52:53.326Z,4.20
2023-03-05T05:57:55.541Z,3.15
2023-03-05T06:02:57.770Z,2.83
2023-03-05T06:08:00.298Z,3.20
2023-03-05T06:13:02.596Z,2.95
2023-03-05T06:18:04.838Z,2.90
2023-03-05T06:23:07.220Z,3.45
2023-03-05T06:28:09.286Z,3.00
2023-03-05T06:33:11.857Z,2.90
2023-03-05T06:38:13.926Z,3.63
2023-03-05T06:43:16.048Z,3.38
2023-03-05T06:48:18.106Z,3.10
2023-03-05T06:53:20.150Z,3.67
2023-03-05T06:58:22.947Z,3.22
2023-03-05T07:03:24.953Z,3.40
2023-03-05T07:08:27.104Z,3.00
2023-03-05T07:13:29.701Z,2.67
2023-03-05T07:18:31.786Z,2.65
2023-03-05T07:23:35.220Z,2.88
2023-03-05T07:28:37.466Z,2.40
2023-03-05T07:33:39.639Z,2.40
2023-03-05T07:38:42.194Z,2.55
2023-03-05T07:43:45.825Z,2.75
2023-03-05T07:48:47.994Z,2.88
2023-03-05T07:53:51.599Z,3.03
2023-03-05T07:58:53.610Z,2.38
2023-03-05T08:03:55.987Z,2.08
2023-03-05T08:08:58.766Z,2.08
2023-03-05T08:14:01.018Z,2.15
2023-03-05T08:19:03.114Z,2.25
2023-03-05T08:24:08.461Z,2.28
2023-03-05T08:29:10.806Z,2.10
2023-03-05T08:34:13.392Z,1.95
2023-03-05T08:39:15.834Z,2.17
2023-03-05T08:44:17.911Z,1.92
2023-03-05T08:49:19.986Z,1.85
2023-03-05T08:54:22.085Z,2.00
2023-03-05T08:59:24.170Z,2.05
2023-03-05T09:04:26.302Z,2.08
2023-03-05T09:09:29.941Z,2.08
2023-03-05T09:14:32.104Z,1.60
2023-03-05T09:19:34.275Z,1.80
2023-03-05T09:24:36.429Z,2.45
2023-03-05T09:29:38.504Z,1.85
2023-03-05T09:34:40.602Z,1.98
2023-03-05T09:39:42.860Z,1.60
2023-03-05T09:45:12.429Z,1.70
2023-03-05T09:50:35.742Z,0.63
2023-03-05T09:55:42.124Z,0.70
2023-03-05T10:00:47.154Z,0.93
2023-03-05T10:05:58.234Z,0.70
2023-03-05T10:16:03.969Z,0.80
2023-03-05T10:21:13.408Z,0.98
2023-03-05T10:26:39.283Z,0.90
2023-03-05T10:32:09.358Z,0.82
2023-03-05T10:37:26.621Z,1.20
2023-03-05T10:42:42.784Z,1.17
2023-03-05T10:47:54.037Z,0.90
2023-03-05T10:53:10.501Z,1.25
2023-03-05T10:58:14.833Z,1.23
2023-03-05T11:03:16.857Z,1.48
2023-03-05T11:08:36.263Z,1.20
2023-03-05T11:13:56.521Z,1.10
2023-03-05T11:19:20.788Z,0.80
2023-03-05T11:24:22.868Z,0.63
2023-03-05T11:29:33.691Z,1.05
2023-03-05T11:34:35.880Z,0.80
2023-03-05T11:39:40.148Z,0.80
2023-03-05T11:44:48.490Z,1.10
2023-03-05T11:49:56.184Z,0.98
2023-03-05T11:55:07.124Z,1.13
2023-03-05T12:00:16.250Z,1.10
2023-03-05T12:05:18.438Z,1.10
2023-03-05T12:10:23.690Z,1.00
2023-03-05T12:16:04.135Z,0.65
2023-03-05T12:21:14.115Z,1.20
2023-03-05T12:26:16.306Z,1.02
2023-03-05T12:31:38.273Z,0.60
2023-03-05T12:36:40.891Z,0.65
2023-03-05T12:41:43.149Z,0.65
2023-03-05T12:47:06.059Z,0.50
2023-03-05T12:52:22.948Z,0.70
2023-03-05T12:57:29.499Z,0.75
2023-03-05T13:02:44.139Z,1.00
2023-03-05T13:07:46.324Z,0.77
2023-03-05T13:12:54.579Z,0.70
2023-03-05T13:18:03.322Z,0.68
2023-03-05T13:23:20.580Z,0.63
2023-03-05T13:28:22.772Z,0.80
2023-03-05T13:33:33.666Z,0.60
2023-03-05T13:38:40.055Z,0.82
2023-03-05T13:43:44.341Z,0.73
2023-03-05T13:48:46.617Z,0.82
2023-03-05T13:53:50.014Z,0.77
2023-03-05T13:58:57.477Z,0.80
2023-03-05T14:04:18.072Z,1.27
2023-03-05T14:09:26.432Z,1.13
2023-03-05T14:14:30.430Z,1.40
2023-03-05T14:19:39.229Z,1.80
2023-03-05T14:24:52.637Z,1.88
2023-03-05T14:29:54.983Z,1.92
2023-03-05T14:34:59.359Z,2.17
2023-03-05T14:40:07.877Z,2.45
2023-03-05T14:45:14.445Z,3.30
2023-03-05T14:50:44.053Z,3.50
2023-03-05T14:55:50.232Z,4.10
2023-03-05T15:00:53.846Z,5.05
2023-03-05T15:05:58.467Z,5.03
2023-03-05T15:11:01.123Z,4.15
2023-03-05T15:16:04.920Z,4.10
2023-03-05T15:21:07.130Z,2.90
2023-03-05T15:26:09.851Z,2.60
2023-03-05T15:31:12.278Z,2.50
2023-03-05T15:36:14.299Z,2.50
2023-03-05T15:41:17.618Z,2.60
2023-03-05T15:46:19.788Z,2.28
2023-03-05T15:51:21.849Z,2.05
2023-03-05T15:56:23.915Z,2.10
2023-03-05T16:01:26.051Z,2.15
2023-03-05T16:06:29.046Z,2.17
2023-03-05T16:11:33.480Z,1.65
2023-03-05T16:16:36.524Z,1.42
2023-03-05T16:21:38.633Z,1.48
2023-03-05T16:26:41.793Z,2.00
2023-03-05T16:31:45.298Z,1.55
2023-03-05T16:36:52.735Z,1.50
2023-03-05T16:41:54.852Z,1.45
2023-03-05T16:46:57.261Z,1.70
2023-03-05T16:52:03.474Z,1.60
2023-03-05T16:57:09.198Z,1.60
2023-03-05T17:02:13.141Z,1.98
2023-03-05T17:07:15.489Z,1.70
2023-03-05T17:12:17.536Z,1.75
2023-03-05T17:17:20.043Z,2.33
2023-03-05T17:22:22.099Z,2.35
2023-03-05T17:27:24.286Z,2.45
2023-03-05T17:32:26.740Z,4.38
2023-03-05T17:37:28.876Z,8.55
2023-03-05T17:42:31.006Z,3.90
2023-03-05T17:47:34.178Z,4.75
2023-03-05T17:52:41.125Z,3.67
2023-03-05T17:57:44.196Z,3.90
2023-03-05T18:02:46.768Z,5.88
2023-03-05T18:07:49.034Z,9.85
2023-03-05T18:12:52.325Z,2.97
2023-03-05T18:17:55.030Z,2.33
2023-03-05T18:22:58.472Z,2.97
2023-03-05T18:28:02.907Z,4.25
2023-03-05T18:33:05.125Z,4.28
2023-03-05T18:38:07.149Z,4.60
2023-03-05T18:43:09.694Z,3.15
2023-03-05T18:48:11.707Z,2.30
2023-03-05T18:53:14.297Z,2.47
2023-03-05T18:58:17.466Z,1.98
2023-03-05T19:03:21.790Z,1.75
2023-03-05T19:08:24.924Z,2.17
2023-03-05T19:13:39.532Z,2.30
2023-03-05T19:18:57.147Z,1.85
2023-03-05T19:23:59.703Z,2.35
2023-03-05T19:29:02.262Z,7.28
2023-03-05T19:34:05.006Z,2.30
2023-03-05T19:39:07.832Z,3.10
2023-03-05T19:44:10.244Z,3.60
2023-03-05T19:49:12.459Z,3.00
2023-03-05T19:54:16.861Z,4.18
2023-03-05T19:59:21.037Z,6.18
2023-03-05T20:04:24.391Z,3.42
2023-03-05T20:09:26.551Z,2.95
2023-03-05T20:14:28.552Z,4.97
2023-03-05T20:19:30.628Z,4.00
2023-03-05T20:24:32.682Z,7.38
2023-03-05T20:29:34.837Z,4.35
2023-03-05T20:34:37.060Z,3.08
2023-03-05T20:39:39.206Z,2.78
2023-03-05T20:44:42.428Z,3.00
2023-03-05T20:49:44.585Z,2.42
2023-03-05T20:54:47.660Z,2.60
2023-03-05T20:59:49.885Z,2.70
2023-03-05T21:04:52.088Z,2.70
2023-03-05T21:09:54.245Z,2.75
2023-03-05T21:14:56.278Z,2.83
2023-03-05T21:19:58.470Z,3.05
2023-03-05T21:25:13.382Z,3.22
2023-03-05T21:30:17.166Z,2.97
2023-03-05T21:35:21.720Z,2.63
2023-03-05T21:40:23.840Z,2.80
2023-03-05T21:45:27.360Z,2.88
2023-03-05T21:50:29.478Z,3.47
2023-03-05T21:55:43.137Z,3.00
2023-03-05T22:00:45.307Z,2.97
2023-03-05T22:05:48.017Z,2.70
2023-03-05T22:10:50.299Z,3.22
2023-03-05T22:15:57.552Z,2.90
2023-03-05T22:20:59.874Z,2.70
2023-03-05T22:26:05.607Z,2.20
2023-03-05T22:31:08.105Z,2.35
2023-03-05T22:36:11.106Z,2.22
2023-03-05T22:41:16.139Z,2.72
2023-03-05T22:46:24.048Z,2.53
2023-03-05T22:51:26.380Z,2.78
2023-03-05T22:56:28.384Z,2.65
2023-03-05T23:01:30.506Z,2.83
2023-03-05T23:06:32.490Z,2.50
2023-03-05T23:11:34.503Z,2.75
2023-03-05T23:16:36.719Z,2.70
2023-03-05T23:21:38.952Z,3.15
2023-03-05T23:26:41.416Z,3.17
2023-03-05T23:31:43.444Z,3.40
2023-03-05T23:36:45.562Z,3.20
2023-03-05T23:41:47.705Z,3.30
2023-03-05T23:46:49.760Z,3.15
2023-03-05T23:51:51.789Z,3.40
2023-03-05T23:56:53.824Z,3.42
